Aktualne dane pomiarowe

Uwaga, wersja testowa! Automatyczne pobieranie danych za pomocą narzędzi lub skryptów to umożliwiających jest zabronione.

Dane meteo z obszaru Polski uzyskane na podstawie depesz SYNOP pobieranych co godzinę z NWS. Najedź myszką na symbol przedstawiony w tabeli, aby uzyskać informacje co do jego znaczenia. Prosimy pamiętać, że to testowa wersja strony, która jeszcze nie jest ukończona. Stworzono również jest krótki FAQ dotyczący korzystania z tej podstrony Anomalie temperatury w chwili obecnej odniesione są do okresu referencyjnego 1951-2016. Okres ten będzie później zmieniony na 1981-2010. Kliknij ikonę aby pobrać plik CSV. Kliknij ikonę aby wygenerować mapę synoptyczną dla danego terminu.

Wybierz Datę:    

        

Śnieżka (12510)

Dane terminowe dla wybranej stacji. Kliknij datę, aby otrzymać dane z tego terminu dla wszystkich stacji.

TemperaturaZachmurzenieWiatrCiśnienieOpadyPogoda
 Data t td wb tx tn tg rh  Nt Nl Cl Cm Ch ws wd g1 g2 wx mslp ppp ch 24h 12h t ww ww w1 w2  
2019-06-22 23:00:00 8.4 4.8 6.2--- 7850.0wx-wxwx15wx---- 842.1 0.4---------
2019-06-22 22:00:00 8.6 4.4 6.1--- 7550.0wx-wxwx15wx---- 841.0 -0.8---------
2019-06-22 21:00:00 9.2 4.6 6.5--- 7350.0wx-wxwx15wx---- 841.4 -1.1---------
2019-06-22 20:00:00 9.4 5.6 7.1--- 7750.0wx-wxwx15wx---- 841.7 -1.1---------
2019-06-22 19:00:00 9.7 6.4 7.6--- 8050.0wxwxwxwxwx13wx---- 841.8 -1.3---------
2019-06-22 18:00:00 10.0 7.8 8.5 11.5 7.8- 8650.0wx-wxwx10wx---- 842.5 -1.0- 0.012------
2019-06-22 17:00:00 10.4 8.3 9.0--- 8740.0wxwxwx9wx---- 842.8 -0.7---------
2019-06-22 16:00:00 10.9 8.3 9.2--- 8440.0wxwxwx9wx---- 843.1 -0.6---------
2019-06-22 15:00:00 10.8 8.9 9.5--- 8840.0wxwxwx8wx---- 843.5 -0.9---------
2019-06-22 14:00:00 10.3 7.5 8.5--- 8350.0wxwxwxwx8wx---- 843.5 -0.9---------
2019-06-22 13:00:00 11.3 8.9 9.7--- 8550.0wxwxwx7wx---- 843.7 -0.8---------
2019-06-22 12:00:00 9.8 8.1 8.6--- 8950.0wxwxwx7wx---- 844.4 0.5---wx-w1--
2019-06-22 11:00:00 9.3 8.5 8.7--- 9550.0wxwxwx7wx---- 844.4 0.5---------
2019-06-22 10:00:00 10.0 6.5 7.8--- 7950.0wxwxwxwxwx8wx---- 844.5 0.8---------
2019-06-22 09:00:00 9.7 8.1 8.6--- 9050.0wxwxwxwxwx9wx---- 843.9 0.2---wx---
2019-06-22 08:00:00 9.3 9.3 9.2--- 1000.9wxwxwx9wx---- 843.9 0.5---wx-w1w2--
2019-06-22 07:00:00 8.3 8.3 8.2--- 1000.6wxwxwx10wx---- 843.7 0.7---wx-w1w2--
2019-06-22 06:00:00 8.8 8.8 8.7 10.6 8.0- 1000.1wxwxwx8wx---- 843.7 0.5 0.2 0.012wx-w1w2- 3.1
2019-06-22 05:00:00 8.6 8.6 8.5--- 1000.1wx-9wx---- 843.4 0.2---wx-w1w2--
2019-06-22 04:00:00 8.9 8.9 8.8--- 1000.1wx-9wx---- 843.0 0.0---wx-w1w2--
2019-06-22 03:00:00 9.2 9.2 9.1--- 1000.1wx-7wx---- 843.2 0.2---wx-w1w2--
2019-06-22 02:00:00 9.0 9.0 8.9--- 1000.1wx-6wx---- 843.2 0.2---wx-w1w2--
2019-06-22 01:00:00 9.1 9.1 9.0--- 1000.1wx-8wx---- 843.0 0.2---wx-w1w2--
2019-06-22 00:00:00 9.3 9.3 9.2--- 1000.1wxwxwx7wx---- 843.0 0.5- 0.06wx-w1w2--
2019-06-21 23:00:00 9.4 9.4 9.3--- 1000.9wxwxwx7wx---- 843.0 0.8---wx-w1w2--
2019-06-21 22:00:00 9.5 9.5 9.4--- 1000.9wxwxwx8wx---- 842.8 1.2---wx-w1w2--
2019-06-21 21:00:00 9.7 9.7 9.6--- 1000.9wxwxwx10wx---- 842.5 1.3---wx-w1w2--
2019-06-21 20:00:00 10.0 10.0 9.9--- 1000.1wx-10wx---- 842.2 0.9---wx-w1w2--
2019-06-21 19:00:00 10.3 10.3 10.2--- 1000.6wxwxwx------ 841.6 0.6---wx-w1w2--
2019-06-21 18:00:00 10.6 10.6 10.5 11.8 10.0- 1000.6wxwxwx9wx---- 841.2 0.4- 0.212wx-w1w2--
2019-06-21 17:00:00 10.9 10.7 10.7--- 990.9wxwxwx9wx---- 841.3 0.3---wx-w1w2--
2019-06-21 16:00:00 10.9 10.9 10.8--- 1000.9wxwxwxwxwx9wx---- 841.0 -0.1---wx-w1w2--
2019-06-21 15:00:00 10.9 10.9 10.8--- 1000.1wxwxwx9wx---- 840.8 -0.3---wx-w1w2--
2019-06-21 14:00:00 11.0 11.0 10.9--- 1000.6wxwxwx7wx---- 841.0 -0.2---wx-w1w2--
2019-06-21 13:00:00 11.1 11.1 11.0--- 1000.6wxwxwx6wx---- 841.1 -0.1---wx-w1w2--
2019-06-21 12:00:00 10.6 10.6 10.5--- 1000.6wxwxwx7wx---- 841.1 0.2- 0.06wx---
2019-06-21 11:00:00 10.6 10.6 10.5--- 1000.9wxwxwx4wx---- 841.2 0.7---wx-w1w2--
2019-06-21 10:00:00 11.6 11.6 11.6--- 1000.6wxwxwx3wx---- 841.2 1.1---wx-w1w2--
2019-06-21 09:00:00 11.3 10.4 10.6--- 940.9wxwxwxwx3wx---- 840.9 1.2---wx---
2019-06-21 08:00:00 10.5 9.9 10.0--- 960.9wxwxwxwx3wx---- 840.5 1.0---wx-w1w2--
2019-06-21 07:00:00 10.1 9.9 9.9--- 990.3wxwxwxwx3wx---- 840.1 0.7---wx---
2019-06-21 06:00:00 10.9 7.6 8.8 15.1 9.9- 8050.0wxwxwxwx8wx---- 839.7 0.3 1.0 1.012wx-w1- 11.1
2019-06-21 05:00:00 10.0 9.5 9.6--- 970.9wxwxwx7wx---- 839.5 0.3---wx-w1w2--
2019-06-21 04:00:00 10.5 9.7 9.9--- 950.9wxwxwx5wx---- 839.4 0.2---wx-w1w2--
2019-06-21 03:00:00 10.5 9.7 9.9--- 950.9wxwxwx3wx---- 839.4 0.4---wx-w1--
2019-06-21 02:00:00 10.7 10.1 10.2--- 960.9wxwxwxwxwx4wx---- 839.2 0.2---wx-w1w2--
2019-06-21 01:00:00 10.5 10.3 10.3--- 990.9wxwxwxwxwx6wx---- 839.2 0.0---wx---
2019-06-21 00:00:00 12.0 7.9 9.4--- 7650.0wx-wxwx3wx---- 839.0 0.1- 0.06------
1.7 ms

 

Print Friendly, PDF & Email